Data for 05/20/2005

Time Sea-Level Adjusted Pressure Absolute Pressure Temperature Relative Humidity Dew Point   
(mb) (inHg) (mb) (inHg) (C) (F) (%) (C) (F)
00:05 1018 30.06 847 25.01 10.7 51.2 85 8.3 46.9
00:10 1018 30.06 847 25.01 10.6 51.2 85 8.2 46.8
00:15 1018 30.06 847 25.01 10.6 51.1 85 8.1 46.6
00:20 1017 30.03 847 25.01 10.7 51.2 85 8.2 46.7
00:25 1018 30.06 847 25.01 10.6 51.2 83 7.9 46.3
00:30 1018 30.06 847 25.01 10.8 51.4 83 8 46.5
00:35 1018 30.06 847 25.01 10.6 51.1 84 8 46.3
00:40 1018 30.06 847 25.01 10.4 50.6 85 8 46.4
00:45 1018 30.06 847 25.01 10.3 50.6 84 7.7 45.9
00:50 1018 30.06 847 25.01 10.6 51 81 7.4 45.4
00:55 1018 30.06 847 25.01 10.9 51.6 78 7.3 45.1
01:00 1018 30.06 847 25.01 10.9 51.7 77 7.1 44.8
01:05 1018 30.06 847 25.01 10.9 51.6 79 7.4 45.3
01:10 1018 30.06 847 25.01 10.7 51.3 82 7.7 45.9
01:15 1018 30.06 847 25.01 10.4 50.8 84 7.8 46.1
01:20 1018 30.06 847 25.01 10.4 50.8 82 7.6 45.6
01:25 1018 30.06 847 25.01 10.4 50.7 82 7.4 45.4
01:30 1018 30.06 847 25.01 10.4 50.8 82 7.5 45.4
01:35 1017 30.03 847 25.01 10.3 50.5 83 7.5 45.5
01:40 1018 30.06 847 25.01 10.2 50.4 81 7.2 45
01:45 1017 30.03 847 25.01 10.1 50.2 83 7.4 45.3
01:50 1017 30.03 847 25.01 9.8 49.7 85 7.4 45.4
01:55 1017 30.03 847 25.01 9.6 49.4 85 7.2 44.9
02:00 1017 30.03 847 25.01 9.6 49.2 84 7.1 44.7
02:05 1017 30.03 847 25.01 9.6 49.3 84 7 44.6
02:10 1017 30.03 847 25.01 9.7 49.5 83 7 44.6
02:15 1017 30.03 847 25.01 9.7 49.4 84 7.1 44.7
02:20 1017 30.03 847 25.01 9.6 49.3 84 7 44.6
02:25 1017 30.03 847 25.01 9.5 49.1 84 6.9 44.5
02:30 1017 30.03 847 25.01 9.6 49.2 83 6.8 44.3
02:35 1017 30.03 847 25.01 9.5 49.1 84 6.9 44.4
02:40 1017 30.03 846 24.98 9.4 48.8 84 6.8 44.3
02:45 1017 30.03 846 24.98 9.2 48.6 84 6.7 44
02:50 1017 30.03 846 24.98 9.2 48.6 84 6.7 44
02:55 1017 30.03 846 24.98 9.1 48.5 84 6.7 44
03:00 1017 30.03 846 24.98 9.1 48.4 83 6.4 43.5
03:05 1017 30.03 846 24.98 9.2 48.6 83 6.5 43.6
03:10 1017 30.03 846 24.98 9.2 48.5 83 6.4 43.5
03:15 1017 30.03 846 24.98 9.2 48.6 82 6.4 43.5
03:20 1017 30.03 846 24.98 9.2 48.6 82 6.4 43.5
03:25 1017 30.03 846 24.98 9.1 48.4 82 6.2 43.1
03:30 1017 30.03 846 24.98 9 48.3 83 6.3 43.3
03:35 1017 30.03 846 24.98 8.9 48.1 83 6.3 43.3
03:40 1017 30.03 846 24.98 8.8 47.8 83 6.2 43.1
03:45 1017 30.03 846 24.98 8.6 47.5 85 6.2 43.1
03:50 1017 30.03 846 24.98 8.4 47 85 6 42.7
03:55 1017 30.03 846 24.98 8.5 47.4 84 5.9 42.6
04:00 1017 30.03 846 24.98 8.5 47.4 83 5.8 42.5
04:05 1017 30.03 846 24.98 8.9 48.1 81 5.8 42.4
04:10 1017 30.03 846 24.98 9.1 48.3 80 5.9 42.6
04:15 1017 30.03 846 24.98 9.1 48.4 81 6 42.8
04:20 1017 30.03 846 24.98 9.1 48.3 80 5.9 42.5
04:25 1017 30.03 846 24.98 9.2 48.5 79 5.8 42.4
04:30 1017 30.03 846 24.98 9.1 48.4 80 5.9 42.7
04:35 1017 30.03 846 24.98 8.8 47.8 83 6 42.8
04:40 1017 30.03 846 24.98 8.7 47.6 82 5.8 42.4
04:45 1017 30.03 846 24.98 8.6 47.4 84 6 42.7
04:50 1017 30.03 846 24.98 8.2 46.7 84 5.7 42.3
04:55 1017 30.03 846 24.98 8.1 46.6 84 5.6 42.1
05:00 1017 30.03 846 24.98 8.2 46.7 83 5.5 42
05:05 1017 30.03 846 24.98 8.2 46.7 83 5.5 42
05:10 1017 30.03 846 24.98 8.2 46.7 83 5.5 41.9
05:15 1017 30.03 846 24.98 8.3 46.9 83 5.6 42.1
05:20 1017 30.03 847 25.01 8.1 46.6 84 5.6 42.1
05:25 1017 30.03 847 25.01 7.9 46.1 85 5.5 41.9
05:30 1017 30.03 846 24.98 7.9 46.2 85 5.5 41.8
05:35 1017 30.03 846 24.98 7.6 45.7 87 5.6 42
05:40 1017 30.03 846 24.98 7.5 45.5 86 5.2 41.4
05:45 1017 30.03 847 25.01 7.6 45.6 86 5.3 41.6
05:50 1017 30.03 847 25.01 7.3 45.2 86 5.2 41.4
05:55 1017 30.03 846 24.98 7.4 45.3 86 5.3 41.5
06:00 1017 30.03 847 25.01 7.5 45.4 86 5.2 41.4
06:05 1017 30.03 846 24.98 7.9 46.2 85 5.4 41.8
06:10 1017 30.03 847 25.01 7.9 46.3 84 5.4 41.8
06:15 1017 30.03 847 25.01 7.7 45.8 85 5.3 41.5
06:20 1017 30.03 847 25.01 7.6 45.6 85 5.2 41.4
06:25 1017 30.03 847 25.01 7.6 45.6 85 5.3 41.5
06:30 1017 30.03 847 25.01 7.4 45.2 86 5.2 41.3
06:35 1018 30.06 847 25.01 7.4 45.2 85 5.1 41.2
06:40 1018 30.06 847 25.01 7.2 45 86 5.1 41.2
06:45 1018 30.06 847 25.01 7.4 45.4 86 5.3 41.5
06:50 1018 30.06 847 25.01 7.6 45.7 86 5.4 41.6
06:55 1018 30.06 847 25.01 7.6 45.7 86 5.4 41.8
07:00 1018 30.06 847 25.01 7.8 46 85 5.4 41.8
07:05 1018 30.06 847 25.01 8.2 46.7 83 5.4 41.8
07:10 1018 30.06 847 25.01 8.8 47.8 80 5.5 41.9
07:15 1018 30.06 847 25.01 9.3 48.8 79 5.8 42.4
07:20 1018 30.06 847 25.01 9.8 49.6 75 5.7 42.2
07:25 1018 30.06 847 25.01 10 50 75 5.9 42.6
07:30 1018 30.06 847 25.01 10.2 50.3 75 6 42.9
07:35 1018 30.06 847 25.01 10.4 50.7 75 6.2 43.1
07:40 1018 30.06 847 25.01 10.5 51 75 6.3 43.3
07:45 1018 30.06 847 25.01 10.6 51.2 75 6.3 43.4
07:50 1018 30.06 847 25.01 10.8 51.4 76 6.8 44.2
07:55 1018 30.06 847 25.01 10.7 51.3 76 6.6 43.9
08:00 1018 30.06 847 25.01 11 51.7 75 6.8 44.2
08:05 1018 30.06 847 25.01 11.5 52.7 74 7 44.7
08:10 1017 30.03 847 25.01 11.1 51.9 76 7 44.6
08:15 1017 30.03 847 25.01 11 51.7 76 7 44.6
08:20 1017 30.03 847 25.01 11.3 52.3 74 6.9 44.4
08:25 1017 30.03 847 25.01 11.9 53.5 69 6.6 43.8
08:30 1017 30.03 847 25.01 11.9 53.4 70 6.7 44.1
08:35 1017 30.03 847 25.01 12.3 54.2 69 6.8 44.2
08:40 1017 30.03 846 24.98 12.8 55 67 6.8 44.2
08:45 1017 30.03 846 24.98 13.1 55.6 65 6.8 44.2
08:50 1017 30.03 846 24.98 13 55.3 68 7.1 44.9
08:55 1017 30.03 846 24.98 12.8 55 68 7 44.6
09:00 1017 30.03 846 24.98 13.1 55.6 66 7 44.6
09:05 1017 30.03 846 24.98 13.1 55.6 66 6.9 44.4
09:10 1017 30.03 846 24.98 13.2 55.7 67 7.2 44.9
09:15 1017 30.03 846 24.98 12.8 55.1 68 7 44.7
09:20 1017 30.03 846 24.98 12.9 55.3 64 6.4 43.6
09:25 1017 30.03 846 24.98 13.5 56.3 64 7 44.5
09:30 1017 30.03 846 24.98 13.1 55.7 66 7.1 44.7
09:35 1017 30.03 846 24.98 12.7 54.8 70 7.3 45.2
09:40 1017 30.03 846 24.98 12.5 54.6 72 7.6 45.8
09:45 1017 30.03 846 24.98 12.8 55.1 72 8 46.4
09:50 1017 30.03 846 24.98 12.7 54.8 74 8.1 46.6
09:55 1017 30.03 846 24.98 13.1 55.6 71 8 46.4
10:00 1017 30.03 846 24.98 13.7 56.7 65 7.4 45.4
10:05 1017 30.03 846 24.98 13.7 56.7 68 7.9 46.3
10:10 1017 30.03 846 24.98 14.5 58.1 64 7.9 46.2
10:15 1017 30.03 846 24.98 15.1 59.2 62 8.1 46.5
10:20 1016 30 846 24.98 15.5 59.9 61 8 46.3
10:25 1016 30 846 24.98 16.1 61 62 9 48.1
10:30 1016 30 846 24.98 16 60.8 61 8.5 47.3
10:35 1016 30 846 24.98 16.3 61.4 59 8.5 47.3
10:40 1016 30 846 24.98 16.5 61.8 60 8.9 48.1
10:45 1016 30 845 24.95 16.5 61.8 60 8.8 47.9
10:50 1016 30 845 24.95 15.9 60.6 61 8.5 47.3
10:55 1016 30 845 24.95 15.8 60.4 62 8.7 47.6
11:00 1016 30 845 24.95 15.3 59.6 65 8.9 48
11:05 1016 30 845 24.95 15.8 60.5 63 9 48.1
11:10 1016 30 845 24.95 16.3 61.3 60 8.6 47.5
11:15 1016 30 845 24.95 16.7 62 59 8.8 47.9
11:20 1016 30 845 24.95 16.8 62.3 60 9 48.2
11:25 1016 30 845 24.95 17.3 63.1 58 9.2 48.5
11:30 1016 30 845 24.95 16.9 62.4 60 9 48.3
11:35 1016 30 845 24.95 16.7 62 59 8.8 47.9
11:40 1016 30 845 24.95 17 62.6 58 8.7 47.7
11:45 1016 30 845 24.95 17.5 63.4 57 8.9 48.1
11:50 1016 30 845 24.95 17.8 64 55 8.7 47.7
11:55 1015 29.97 845 24.95 17.9 64.3 55 8.8 47.9
12:00 1015 29.97 845 24.95 17.8 64 56 8.9 48
12:05 1015 29.97 845 24.95 17.5 63.4 56 8.7 47.6
12:10 1015 29.97 845 24.95 17.7 63.9 54 8.3 46.9
12:15 1015 29.97 844 24.92 18 64.4 54 8.8 47.8
12:20 1015 29.97 844 24.92 17.6 63.7 56 8.8 47.9
12:25 1015 29.97 844 24.92 17.9 64.3 54 8.6 47.4
12:30 1015 29.97 844 24.92 18.9 66 51 8.7 47.7
12:35 1015 29.97 844 24.92 19.3 66.7 50 8.8 47.8
12:40 1015 29.97 844 24.92 18.1 64.6 54 8.8 47.8
12:45 1015 29.97 844 24.92 18.2 64.7 53 8.5 47.3
12:50 1015 29.97 844 24.92 18.2 64.8 54 8.9 48.1
12:55 1015 29.97 844 24.92 17.8 64 56 8.9 48.1
13:00 1015 29.97 844 24.92 18.1 64.5 55 8.9 48
13:05 1014 29.94 844 24.92 18.3 64.9 55 9.2 48.6
13:10 1014 29.94 844 24.92 18.4 65 55 9.3 48.8
13:15 1014 29.94 843 24.89 18.2 64.8 56 9.3 48.7
13:20 1014 29.94 843 24.89 18.8 65.9 53 9.3 48.7
13:25 1014 29.94 843 24.89 19.9 67.8 49 9 48.2
13:30 1014 29.94 843 24.89 20 67.9 54 10.4 50.8
13:35 1014 29.94 843 24.89 18.8 65.9 56 10 50.1
13:40 1014 29.94 843 24.89 18.9 66 55 9.8 49.7
13:45 1014 29.94 843 24.89 19.1 66.4 54 9.7 49.4
13:50 1013 29.91 843 24.89 20.1 68.2 52 10 50
13:55 1013 29.91 842 24.86 19.9 67.7 53 10.1 50.3
14:00 1013 29.91 842 24.86 20.1 68.1 51 9.8 49.7
14:05 1013 29.91 842 24.86 19.8 67.7 50 9.3 48.8
14:10 1013 29.91 842 24.86 20.1 68.2 50 9.6 49.3
14:15 1013 29.91 842 24.86 20.5 68.8 50 9.9 49.8
14:20 1012 29.88 842 24.86 20.4 68.7 51 10 49.9
14:25 1012 29.88 841 24.83 19.8 67.7 51 9.7 49.4
14:30 1012 29.88 841 24.83 20.4 68.6 50 9.9 49.8
14:35 1011 29.85 841 24.83 20.9 69.5 50 10.1 50.2
14:40 1012 29.88 841 24.83 21 69.9 49 10 50
14:45 1012 29.88 841 24.83 21.6 71 44 8.9 48
14:50 1013 29.91 842 24.86 21.4 70.5 53 11.6 52.9
14:55 1013 29.91 842 24.86 20.1 68.1 53 10.4 50.8
15:00 1013 29.91 842 24.86 19.9 67.9 55 10.7 51.3
15:05 1013 29.91 842 24.86 19 66.3 55 9.8 49.7
15:10 1013 29.91 842 24.86 18.5 65.3 58 10.1 50.2
15:15 1013 29.91 842 24.86 18.9 66 55 9.7 49.4
15:20 1013 29.91 842 24.86 19.2 66.6 50 8.6 47.5
15:25 1013 29.91 842 24.86 18.5 65.3 53 8.8 47.9
15:30 1013 29.91 843 24.89 17.4 63.3 60 9.6 49.3
15:35 1014 29.94 843 24.89 16.4 61.4 61 8.8 47.9
15:40 1014 29.94 843 24.89 16.8 62.3 58 8.7 47.6
15:45 1014 29.94 843 24.89 17 62.5 55 7.9 46.2
15:50 1013 29.91 843 24.89 17 62.6 54 7.6 45.7
15:55 1013 29.91 843 24.89 17.4 63.3 49 6.7 44.1
16:00 1013 29.91 842 24.86 18 64.5 48 6.9 44.5
16:05 1013 29.91 843 24.89 18.4 65 48 7.4 45.3
16:10 1014 29.94 843 24.89 17.9 64.2 50 7.6 45.6
16:15 1014 29.94 843 24.89 17.4 63.4 52 7.5 45.4
16:20 1014 29.94 843 24.89 17.2 63 53 7.7 45.9
16:25 1014 29.94 843 24.89 17 62.6 53 7.5 45.6
16:30 1014 29.94 843 24.89 16.7 62 60 8.9 48.1
16:35 1014 29.94 843 24.89 16.1 60.9 65 9.5 49.1
16:40 1014 29.94 843 24.89 15.7 60.3 69 10.1 50.2
16:45 1014 29.94 843 24.89 15.1 59.2 72 10.1 50.2
16:50 1014 29.94 843 24.89 14.8 58.7 73 10.1 50.2
16:55 1014 29.94 843 24.89 14.5 58.2 76 10.3 50.6
17:00 1014 29.94 843 24.89 14.5 58.2 76 10.3 50.6
17:05 1014 29.94 843 24.89 14.2 57.6 76 10.2 50.3
17:10 1014 29.94 843 24.89 14.1 57.3 74 9.6 49.3
17:15 1014 29.94 843 24.89 14.2 57.5 74 9.7 49.4
17:20 1014 29.94 843 24.89 13.8 56.9 80 10.4 50.8
17:25 1013 29.91 843 24.89 13.5 56.2 80 10.1 50.1
17:30 1014 29.94 843 24.89 13.5 56.2 78 9.7 49.5
17:35 1014 29.94 843 24.89 13.5 56.3 80 10.2 50.4
17:40 1014 29.94 843 24.89 13.4 56.2 80 10.1 50.1
17:45 1013 29.91 843 24.89 13.7 56.7 75 9.5 49
17:50 1013 29.91 843 24.89 14.2 57.5 71 9 48.2
17:55 1013 29.91 843 24.89 14.6 58.3 70 9.2 48.5
18:00 1013 29.91 842 24.86 14.3 57.7 69 8.8 47.9
18:05 1013 29.91 842 24.86 14.6 58.3 67 8.7 47.7
18:10 1013 29.91 842 24.86 14.9 58.9 64 8.3 47
18:15 1013 29.91 842 24.86 15.3 59.5 62 8.1 46.6
18:20 1012 29.88 842 24.86 15.7 60.2 63 8.8 47.9
18:25 1012 29.88 841 24.83 15.4 59.8 66 9.1 48.4
18:30 1012 29.88 841 24.83 15.1 59.2 64 8.5 47.3
18:35 1012 29.88 841 24.83 15.4 59.6 64 8.7 47.7
18:40 1012 29.88 841 24.83 15.3 59.5 64 8.6 47.5
18:45 1012 29.88 841 24.83 15 59.1 63 8.2 46.7
18:50 1012 29.88 842 24.86 15.4 59.6 59 7.6 45.6
18:55 1012 29.88 841 24.83 15.6 60 64 8.8 47.9
19:00 1012 29.88 841 24.83 15.8 60.5 62 8.7 47.6
19:05 1012 29.88 841 24.83 16.1 60.9 63 9.1 48.4
19:10 1012 29.88 841 24.83 15.8 60.4 67 9.7 49.5
19:15 1012 29.88 841 24.83 15.6 60.1 69 10 50
19:20 1012 29.88 841 24.83 15.6 60.1 68 9.8 49.6
19:25 1011 29.85 841 24.83 15.5 59.9 67 9.4 48.9
19:30 1011 29.85 840 24.81 15.4 59.7 70 9.9 49.9
19:35 1011 29.85 840 24.81 15.2 59.3 70 9.8 49.6
19:40 1011 29.85 840 24.81 15.1 59.2 69 9.5 49.1
19:45 1011 29.85 840 24.81 15 59 71 9.9 49.8
19:50 1011 29.85 840 24.81 14.9 58.8 71 9.7 49.5
19:55 1011 29.85 840 24.81 14.9 58.9 68 9.2 48.5
20:00 1012 29.88 841 24.83 15.1 59.1 68 9.2 48.5
20:05 1012 29.88 842 24.86 15.3 59.5 68 9.4 49
20:10 1014 29.94 843 24.89 14.9 58.7 81 11.6 53
20:15 1014 29.94 843 24.89 13.3 55.9 83 10.6 51
20:20 1014 29.94 843 24.89 12.7 54.8 86 10.4 50.7
20:25 1014 29.94 844 24.92 12.4 54.4 88 10.5 50.9
20:30 1015 29.97 844 24.92 12.5 54.5 87 10.5 50.8
20:35 1015 29.97 844 24.92 12.4 54.2 88 10.4 50.7
20:40 1015 29.97 844 24.92 12.3 54.2 87 10.2 50.3
20:45 1014 29.94 844 24.92 12.3 54.2 86 10 50
20:50 1014 29.94 843 24.89 12.2 54 86 9.9 49.9
20:55 1014 29.94 844 24.92 12 53.6 86 9.7 49.4
21:00 1015 29.97 844 24.92 11.9 53.3 87 9.8 49.6
21:05 1015 29.97 844 24.92 11.8 53.2 85 9.3 48.8
21:10 1015 29.97 844 24.92 11.7 53 86 9.3 48.8
21:15 1015 29.97 844 24.92 11.5 52.7 87 9.4 49
21:20 1015 29.97 844 24.92 11.4 52.5 87 9.3 48.8
21:25 1015 29.97 844 24.92 11.4 52.4 86 9.2 48.5
21:30 1015 29.97 844 24.92 11.4 52.4 87 9.2 48.6
21:35 1015 29.97 844 24.92 11.4 52.5 87 9.4 48.8
21:40 1015 29.97 844 24.92 11.3 52.4 88 9.5 49.1
21:45 1015 29.97 844 24.92 11.3 52.4 89 9.5 49.2
21:50 1015 29.97 844 24.92 11.3 52.3 89 9.6 49.2
21:55 1015 29.97 844 24.92 11.3 52.3 90 9.6 49.4
22:00 1015 29.97 845 24.95 11.3 52.4 90 9.8 49.6
22:05 1015 29.97 845 24.95 11.3 52.4 90 9.7 49.4
22:10 1016 30 845 24.95 11.3 52.4 87 9.3 48.8
22:15 1016 30 845 24.95 11.3 52.4 82 8.4 47.1
22:20 1016 30 845 24.95 11.2 52.2 84 8.7 47.7
22:25 1016 30 845 24.95 11 51.9 85 8.6 47.5
22:30 1016 30 845 24.95 10.9 51.7 87 8.9 47.9
22:35 1016 30 845 24.95 10.7 51.3 87 8.7 47.6
22:40 1016 30 845 24.95 10.6 51 85 8.2 46.8
22:45 1016 30 845 24.95 10.4 50.6 86 8.2 46.7
22:50 1016 30 845 24.95 10.2 50.4 88 8.3 46.9
22:55 1016 30 845 24.95 10.1 50.1 88 8.2 46.8
23:00 1016 30 845 24.95 9.9 49.9 90 8.3 47
23:05 1016 30 845 24.95 9.9 49.9 91 8.5 47.2
23:10 1016 30 845 24.95 9.9 49.7 91 8.5 47.3
23:15 1016 30 845 24.95 9.9 49.8 92 8.7 47.6
23:20 1016 30 845 24.95 9.8 49.7 94 8.8 47.9
23:25 1016 30 846 24.98 9.9 49.7 94 8.9 48
23:30 1017 30.03 846 24.98 9.7 49.5 93 8.6 47.5
23:35 1017 30.03 846 24.98 9.7 49.4 89 8 46.4
23:40 1017 30.03 846 24.98 9.4 48.9 89 7.7 45.9
23:45 1017 30.03 846 24.98 9.3 48.7 89 7.6 45.6
23:50 1016 30 846 24.98 9.1 48.3 90 7.5 45.6
23:55 1017 30.03 846 24.98 9 48.3 91 7.7 45.8
24:00 1017 30.03 846 24.98 9 48.2 89 7.2 45